Главная страница
METAR-TAF:

METAR-TAF

Аэропорты :

Эль-Камышлы, Сирия

широта: 37-03N, долгота: 041-13E, высота над уровнем моря: 455 м

Текущие метеонаблюдения

Эта сводка был подготовлена 1 час и 47 минут назад, в 13:00 UTC
Ветер 8 Узел от юго-юго-восточный
Температура 7°C
Влажность 57%
Давление 1014 hPa
Видимость 10 км и более
Отдельные облака на высоте 2600 фута
Рассеянная облачность на высоте 10000 фута

METAR: OSKL 081300Z 16008KT 9999 SCT026 BKN100 07/M01 Q1014

Время: 16:47 (14:47 UTC)


TAF: отсутствует

Метеонаблюдения и прогнозы для более 4000 аэропортов (сводки METAR и TAF).

Имеющиеся станции представлены на карте желтыми и красными точками.

Чтобы увидеть название станции, наведите на нее мышь.

Затем щелкните, чтобы увидеть метеонаблюдения и метеопрогнозы.

Управление картой: чтобы увеличить масштаб, щелкните зеленые кнопки с черным крестиком; чтобы уменьшить масштаб, щелкните зеленую кнопку с тире; для просмотра соседних карт щелкайте зеленые стрелки.


METAR-TAF: